WetterOnline ( https://www.wetteronline.de )

Wetter aktuell Darß/Zingst

Aktuelles Wetter: Barth (7m)

6-stündlich | Neueste Meldungen
Ortszeit Temperatur Wetter
Do, 25.02. 1:00 9.3° C wolkenlos
Mi, 24.02. 19:00 13.1° C bedeckt
Mi, 24.02. 13:00 16.8° C leicht bewölkt
Mi, 24.02. 7:00 8.4° C wolkig
Mi, 24.02. 1:00 10.1° C bewölkt
Di, 23.02. 19:00 10.4° C bedeckt
Di, 23.02. 13:00 12.8° C bedeckt
Di, 23.02. 7:00 4.0° C leicht bewölkt
Ortszeit Temperatur Wetter
Do, 25.02. 1:00 9.3° C wolkenlos
Do, 25.02. 0:50 9.3° C wolkenlos
Do, 25.02. 0:40 9.8° C leicht bewölkt
Do, 25.02. 0:30 10.0° C wolkig
Do, 25.02. 0:20 10.0° C wolkig
Do, 25.02. 0:10 10.7° C bewölkt
Do, 25.02. 0:00 10.4° C bewölkt
Mi, 24.02. 23:30 8.4° C bedeckt
Mi, 24.02. 23:00 6.9° C leicht bewölkt
Mi, 24.02. 22:30 7.5° C wolkenlos
Mi, 24.02. 22:00 8.7° C wolkenlos
Ortszeit Relative Feuchte Sichtweite
Do, 25.02. 1:00 79% 30 km
Mi, 24.02. 19:00 68% 40 km
Mi, 24.02. 13:00 55% 30 km
Mi, 24.02. 7:00 86% 24 km
Mi, 24.02. 1:00 82% 29 km
Di, 23.02. 19:00 78% 23 km
Di, 23.02. 13:00 65% 30 km
Di, 23.02. 7:00 90% 27 km
Ortszeit Relative Feuchte Sichtweite
Do, 25.02. 1:00 79% 30 km
Do, 25.02. 0:50 79% -
Do, 25.02. 0:40 79% -
Do, 25.02. 0:30 77% 30 km
Do, 25.02. 0:20 77% -
Do, 25.02. 0:10 76% -
Do, 25.02. 0:00 78% 30 km
Mi, 24.02. 23:30 86% 27 km
Mi, 24.02. 23:00 88% 28 km
Mi, 24.02. 22:30 87% 30 km
Mi, 24.02. 22:00 80% 30 km
Ortszeit Niederschlagsmenge Niederschlagsart
Do, 25.02. 1:00 0.0 l/m2 in 6 Std. -
Mi, 24.02. 19:00 0.0 l/m2 in 12 Std. -
Mi, 24.02. 13:00 0.0 l/m2 in 6 Std. -
Mi, 24.02. 7:00 0.0 l/m2 in 12 Std. -
Mi, 24.02. 1:00 0.0 l/m2 in 6 Std. -
Di, 23.02. 19:00 0.0 l/m2 in 12 Std. -
Di, 23.02. 13:00 0.0 l/m2 in 6 Std. -
Di, 23.02. 7:00 0.0 l/m2 in 12 Std. -
Ortszeit Niederschlagsmenge Niederschlagsart
Do, 25.02. 1:00 0.0 l/m2 in 1 Std. -
Do, 25.02. 0:50 keine Meldung -
Do, 25.02. 0:40 keine Meldung -
Do, 25.02. 0:30 0.0 l/m2 in 1 Std. -
Do, 25.02. 0:20 keine Meldung -
Do, 25.02. 0:10 keine Meldung -
Do, 25.02. 0:00 0.0 l/m2 in 1 Std. -
Mi, 24.02. 23:30 0.0 l/m2 in 1 Std. -
Mi, 24.02. 23:00 0.0 l/m2 in 1 Std. -
Mi, 24.02. 22:30 0.0 l/m2 in 1 Std. -
Mi, 24.02. 22:00 0.0 l/m2 in 1 Std. -
Ortszeit Stärke Spitze Richtung
km/h Bft. km/h Grad Sektor
Do, 25.02. 1:00 13 3 22 200° S
Mi, 24.02. 19:00 9 2 46 200° S
Mi, 24.02. 13:00 25 4 40 230° SW
Mi, 24.02. 7:00 7 2 22 190° S
Mi, 24.02. 1:00 7 2 18 200° S
Di, 23.02. 19:00 11 2 22 210° SW
Di, 23.02. 13:00 18 3 25 200° S
Di, 23.02. 7:00 7 2 18 170° S
Ortszeit Stärke Spitze Richtung
km/h Bft. km/h Grad Sektor
Do, 25.02. 1:00 13 3 19 200° S
Do, 25.02. 0:50 13 3 - 200° S
Do, 25.02. 0:40 14 3 - 200° S
Do, 25.02. 0:30 13 3 19 210° SW
Do, 25.02. 0:20 13 3 - 210° SW
Do, 25.02. 0:10 14 3 - 210° SW
Do, 25.02. 0:00 11 2 17 200° S
Mi, 24.02. 23:30 9 2 13 200° S
Mi, 24.02. 23:00 9 2 13 200° S
Mi, 24.02. 22:30 7 2 14 200° S
Mi, 24.02. 22:00 9 2 17 200° S
Ortszeit Untergrenze Bedeckung Gattung
total tief tief mittel hoch
Do, 25.02. 1:00 - 0/8 0/8 - - -
Mi, 24.02. 19:00 2100 m 8/8 8/8 - - -
Mi, 24.02. 13:00 9000 m 7/8 0/8 - - -
Mi, 24.02. 7:00 8700 m 8/8 0/8 - - -
Mi, 24.02. 1:00 1380 m 8/8 7/8 - - -
Di, 23.02. 19:00 1200 m 8/8 8/8 - - -
Di, 23.02. 13:00 2700 m 8/8 8/8 - - -
Di, 23.02. 7:00 1500 m 2/8 2/8 - - -
Ortszeit Bedeckungsgrad in Achtel und Wolkenuntergrenze
Do, 25.02. 1:00 keine Wolken
Do, 25.02. 0:50 keine Wolken
Do, 25.02. 0:40 2(2400m)
Do, 25.02. 0:30 6(2400m)
Do, 25.02. 0:20 6(2400m)
Do, 25.02. 0:10 7(2400m)
Do, 25.02. 0:00 7(2400m)
Mi, 24.02. 23:30 8(2400m)
Mi, 24.02. 23:00 3(2400m)
Mi, 24.02. 22:30 keine Wolken
Mi, 24.02. 22:00 keine Wolken
Ortszeit Luftdruck NN (hPa) Tendenz (hPa in 3 Std.)
Do, 25.02. 1:00 1026 - 0,7
Mi, 24.02. 19:00 1027 + 0,3
Mi, 24.02. 13:00 1028 - 1,3
Mi, 24.02. 7:00 1029 - 0,8
Mi, 24.02. 1:00 1030 - 0,7
Di, 23.02. 19:00 1030 + 1,1
Di, 23.02. 13:00 1029 + 0,3
Di, 23.02. 7:00 1027 + 1,2
Ortszeit Luftdruck NN (hPa) Tendenz (hPa in 3 Std.)
Do, 25.02. 1:00 1026 - 0,7
Do, 25.02. 0:50 1026 keine Meldung
Do, 25.02. 0:40 1026 keine Meldung
Do, 25.02. 0:30 1026 - 0,7
Do, 25.02. 0:20 1026 keine Meldung
Do, 25.02. 0:10 1027 keine Meldung
Do, 25.02. 0:00 1027 - 0,3
Mi, 24.02. 23:30 1027 + 0,1
Mi, 24.02. 23:00 1027 0,0
Mi, 24.02. 22:30 1027 + 0,1
Mi, 24.02. 22:00 1027 - 0,1
Ortszeit Schneehöhe (cm)
Do, 25.02. 1:00 0
Mi, 24.02. 19:00 0
Mi, 24.02. 13:00 0
Mi, 24.02. 7:00 0
Mi, 24.02. 1:00 0
Di, 23.02. 19:00 0
Di, 23.02. 13:00 0
Di, 23.02. 7:00 0
Ortszeit Schneehöhe (cm)
Do, 25.02. 1:00 0
Do, 25.02. 0:50 0
Do, 25.02. 0:40 0
Do, 25.02. 0:30 0
Do, 25.02. 0:20 0
Do, 25.02. 0:10 0
Do, 25.02. 0:00 0
Mi, 24.02. 23:30 0
Mi, 24.02. 23:00 0
Mi, 24.02. 22:30 0
Mi, 24.02. 22:00 0
Link zu dieser Seite / Seite empfehlen

Das Wetter in ...